Citrix Systems Net Profit Margin 2006-2021 | CTXS

Current and historical net profit margin for Citrix Systems (CTXS) from 2006 to 2021. Net profit margin can be defined as net Income as a portion of total sales revenue. Citrix Systems net profit margin for the three months ending March 31, 2021 was .
Citrix Systems Net Profit Margin Historical Data
Date TTM Revenue TTM Net Income Net Margin
2021-03-31 $3.15B $0.41B 13.10%
2020-12-31 $3.24B $0.50B 15.57%
2020-09-30 $3.24B $0.60B 18.50%
2020-06-30 $3.20B $0.77B 24.10%
2020-03-31 $3.15B $0.75B 23.85%
2019-12-31 $3.01B $0.68B 22.62%
2019-09-30 $3.00B $0.64B 21.31%
2019-06-30 $3.00B $0.53B 17.59%
2019-03-31 $3.00B $0.54B 18.10%
2018-12-31 $2.97B $0.58B 19.37%
2018-09-30 $2.95B $0.13B 4.27%
2018-06-30 $2.91B $0.09B 3.23%
2018-03-31 $2.86B $0.10B 3.36%
2017-12-31 $2.83B $-0.02B -0.71%
2017-09-30 $2.78B $0.46B 16.68%
2017-06-30 $2.76B $0.47B 16.99%
2017-03-31 $2.74B $0.48B 17.55%
2016-12-31 $2.74B $0.54B 19.58%
2016-09-30 $2.28B $0.47B 20.51%
2016-06-30 $2.42B $0.39B 16.15%
2016-03-31 $2.54B $0.37B 14.66%
2015-12-31 $2.65B $0.32B 12.06%
2015-09-30 $3.22B $0.28B 8.78%
2015-06-30 $3.17B $0.28B 8.68%
2015-03-31 $3.15B $0.23B 7.14%
2014-12-31 $3.14B $0.25B 8.02%
2014-09-30 $3.09B $0.30B 9.57%
2014-06-30 $3.05B $0.33B 10.66%
2014-03-31 $3.00B $0.34B 11.21%
2013-12-31 $2.92B $0.34B 11.65%
2013-09-30 $2.86B $0.32B 11.03%
2013-06-30 $2.78B $0.32B 11.35%
2013-03-31 $2.67B $0.34B 12.89%
2012-12-31 $2.59B $0.35B 13.62%
2012-09-30 $2.46B $0.35B 14.08%
2012-06-30 $2.39B $0.36B 15.12%
2012-03-31 $2.30B $0.35B 15.23%
2011-12-31 $2.21B $0.36B 16.18%
2011-09-30 $2.12B $0.34B 16.15%
2011-06-30 $2.02B $0.34B 16.70%
2011-03-31 $1.95B $0.30B 15.58%
2010-12-31 $1.87B $0.28B 14.78%
2010-09-30 $1.80B $0.27B 15.10%
2010-06-30 $1.72B $0.24B 13.69%
2010-03-31 $1.66B $0.23B 13.92%
2009-12-31 $1.61B $0.19B 11.83%
2009-09-30 $1.58B $0.16B 10.32%
2009-06-30 $1.58B $0.16B 10.08%
2009-03-31 $1.58B $0.15B 9.58%
2008-12-31 $1.58B $0.18B 11.24%
2008-09-30 $1.57B $0.18B 11.54%
2008-06-30 $1.52B $0.19B 12.71%
2008-03-31 $1.46B $0.21B 14.44%
2007-12-31 $1.39B $0.22B 15.45%
2007-09-30 $1.31B $0.21B 15.61%
2007-06-30 $1.24B $0.19B 15.15%
2007-03-31 $1.18B $0.18B 15.23%
2006-12-31 $1.13B $0.18B 16.14%
2006-09-30 $1.08B $0.19B 17.38%
2006-06-30 $1.03B $0.19B 17.94%
2006-03-31 $0.97B $0.17B 17.37%
2005-12-31 $0.91B $0.17B 18.26%
Sector Industry Market Cap Revenue
Computer and Technology Computer Software $14.271B $3.237B
Citrix Systems, Inc. aims to power a world where people, organizations and things are securely connected and accessible to make the extraordinary possible. They help customers reimaging the future of work by providing the most comprehensive secure digital workspace that unifies the apps, data and services people need to be productive, and simplifies IT's ability to adopt and manage complex cloud environments. Citrix Systems become the leader in Workspace as a Service (WaaS) by delivering the industry's most comprehensive and integrated platform for secure app, data and network delivery as a service in the Citrix Cloud. Citrix Systems become the preferred and most-used solution for enterprise file synchronization and sharing (EFSS) for business users across all segments.
Stock Name Country Market Cap PE Ratio
Microsoft (MSFT) United States $2181.672B 39.90
Adobe (ADBE) United States $298.164B 64.26
Oracle (ORCL) United States $244.830B 20.98
Salesforce, Inc (CRM) United States $229.880B 71.13
SAP SE (SAP) Germany $170.480B 21.68
Intuit (INTU) United States $144.398B 68.81
Dassault Systemes SA (DASTY) France $69.806B 68.76
Autodesk (ADSK) United States $68.787B 118.43
VMware (VMW) United States $66.334B 30.87
Synopsys (SNPS) United States $43.495B 55.35
Cadence Design Systems (CDNS) United States $40.535B 62.25
ANSYS (ANSS) United States $31.845B 65.48
SS&C Technologies Holdings (SSNC) United States $19.362B 18.07
PTC (PTC) United States $17.843B 65.25
Nuance Communications (NUAN) United States $15.777B 145.13
Open Text (OTEX) Canada $14.034B 15.80
Pegasystems (PEGA) United States $11.117B 0.00
Aspen Technology (AZPN) United States $9.920B 43.41
Manhattan Associates (MANH) United States $9.489B 114.74
Trend Micro (TMICY) Japan $7.538B 29.43
Descartes Systems Group (DSGX) Canada $6.043B 105.01
MicroStrategy (MSTR) United States $5.260B 106.66
ACI Worldwide (ACIW) United States $4.157B 22.56
CommVault Systems (CVLT) United States $3.786B 122.63
Blackbaud (BLKB) United States $3.500B 52.33
Cornerstone OnDemand (CSOD) United States $3.239B 21.74
Verint Systems (VRNT) United States $2.761B 16.53
Progress Software (PRGS) United States $2.025B 15.63
PROS Holdings (PRO) United States $1.916B 0.00
Bottomline Technologies (EPAY) United States $1.793B 141.07
QAD (QADB) United States $1.781B 140.98
Avid Technology (AVID) United States $1.668B 47.32
Sapiens (SPNS) Israel $1.393B 25.49
Simulations Plus (SLP) United States $0.953B 83.07
OptimizeRx (OPRX) United States $0.941B 2693.00
Canaan (CAN) China $0.911B 0.00
Magic Software Enterprises (MGIC) Israel $0.847B 22.14
American Software (AMSWA) United States $0.682B 80.15
Icad Inc (ICAD) United States $0.373B 0.00
Smith Micro Software (SMSI) United States $0.304B 71.00
ServiceSource (SREV) United States $0.151B 0.00
Park City (PCYG) United States $0.109B 51.09
Neonode (NEON) Sweden $0.067B 0.00
NetSol Technologies (NTWK) United States $0.048B 19.14
BSQUARE (BSQR) United States $0.038B 0.00
GSE Systems (GVP) United States $0.029B 0.00